createdAt,value
2023-01-18T00:01:07.109Z,95.67
2023-01-18T00:03:36.483Z,97.83
2023-01-18T00:06:06.612Z,95.10
2023-01-18T00:08:36.328Z,99.67
2023-01-18T00:11:05.917Z,95.43
2023-01-18T00:13:34.379Z,91.63
2023-01-18T00:16:08.657Z,92.90
2023-01-18T00:18:37.015Z,84.60
2023-01-18T00:21:07.095Z,90.97
2023-01-18T00:23:35.403Z,80.07
2023-01-18T00:26:04.885Z,92.73
2023-01-18T00:28:33.140Z,103.67
2023-01-18T00:31:03.230Z,94.67
2023-01-18T00:33:32.725Z,95.70
2023-01-18T00:36:02.363Z,90.40
2023-01-18T00:38:31.113Z,94.80
2023-01-18T00:40:59.367Z,96.00
2023-01-18T00:43:41.628Z,99.80
2023-01-18T00:46:11.783Z,95.53
2023-01-18T00:48:43.089Z,100.77
2023-01-18T00:51:12.851Z,112.73
2023-01-18T00:53:41.341Z,102.53
2023-01-18T00:56:10.825Z,100.33
2023-01-18T00:58:39.269Z,106.93
2023-01-18T01:01:09.850Z,103.53
2023-01-18T01:03:56.186Z,103.93
2023-01-18T01:06:47.634Z,116.00
2023-01-18T01:09:17.986Z,115.73
2023-01-18T01:12:00.678Z,106.53
2023-01-18T01:14:46.415Z,103.50
2023-01-18T01:17:32.480Z,98.00
2023-01-18T01:20:18.242Z,93.37
2023-01-18T01:23:05.532Z,101.90
2023-01-18T01:25:51.185Z,109.43
2023-01-18T01:28:19.367Z,104.30
2023-01-18T01:30:47.679Z,99.93
2023-01-18T01:33:15.855Z,105.80
2023-01-18T01:35:44.304Z,103.97
2023-01-18T01:38:13.840Z,104.67
2023-01-18T01:40:41.980Z,96.03
2023-01-18T01:43:14.309Z,93.50
2023-01-18T01:45:42.715Z,92.20
2023-01-18T01:48:12.030Z,97.47
2023-01-18T01:50:41.594Z,98.80
2023-01-18T01:53:11.253Z,91.70
2023-01-18T01:55:41.776Z,98.63
2023-01-18T01:58:13.402Z,93.20
2023-01-18T02:00:41.662Z,92.53
2023-01-18T02:03:12.693Z,92.67
2023-01-18T02:05:46.589Z,90.20
2023-01-18T02:08:22.725Z,90.03
2023-01-18T02:10:53.258Z,108.10
2023-01-18T02:13:24.002Z,100.73
2023-01-18T02:15:58.793Z,98.60
2023-01-18T02:18:32.464Z,92.73
2023-01-18T02:21:17.779Z,94.63
2023-01-18T02:24:27.691Z,94.87
2023-01-18T02:27:02.924Z,102.37
2023-01-18T02:29:45.724Z,100.67
2023-01-18T02:32:25.086Z,94.57
2023-01-18T02:35:02.089Z,107.57
2023-01-18T02:37:40.513Z,93.00
2023-01-18T02:40:16.830Z,92.87
2023-01-18T02:43:03.741Z,92.07
2023-01-18T02:45:54.738Z,95.20
2023-01-18T02:48:25.231Z,97.00
2023-01-18T02:50:54.220Z,92.37
2023-01-18T02:53:22.375Z,87.53
2023-01-18T02:55:56.746Z,87.67
2023-01-18T02:58:31.129Z,87.23
2023-01-18T03:01:04.643Z,94.03
2023-01-18T03:03:33.166Z,82.17
2023-01-18T03:06:04.016Z,85.27
2023-01-18T03:08:39.688Z,82.37
2023-01-18T03:11:13.264Z,88.37
2023-01-18T03:13:57.285Z,80.47
2023-01-18T03:16:32.344Z,85.37
2023-01-18T03:19:04.986Z,76.97
2023-01-18T03:21:42.870Z,80.63
2023-01-18T03:24:11.989Z,75.60
2023-01-18T03:26:44.155Z,76.43
2023-01-18T03:29:31.562Z,74.50
2023-01-18T03:32:21.958Z,71.83
2023-01-18T03:34:55.221Z,67.90
2023-01-18T03:37:37.716Z,69.40
2023-01-18T03:40:11.286Z,68.17
2023-01-18T03:42:44.323Z,65.90
2023-01-18T03:45:18.299Z,66.50
2023-01-18T03:47:50.413Z,69.67
2023-01-18T03:50:19.182Z,66.43
2023-01-18T03:52:51.947Z,59.83
2023-01-18T03:55:24.546Z,57.90
2023-01-18T03:57:56.596Z,60.83
2023-01-18T04:00:25.626Z,66.47
2023-01-18T04:02:55.413Z,66.20
2023-01-18T04:05:24.398Z,63.83
2023-01-18T04:07:52.650Z,65.97
2023-01-18T04:10:21.538Z,63.27
2023-01-18T04:12:49.661Z,67.00
2023-01-18T04:15:17.945Z,66.30
2023-01-18T04:17:46.060Z,60.00
2023-01-18T04:20:15.779Z,59.93
2023-01-18T04:22:43.930Z,65.13
2023-01-18T04:25:12.085Z,65.63
2023-01-18T04:27:40.198Z,69.43
2023-01-18T04:30:09.776Z,69.63
2023-01-18T04:32:37.903Z,85.43
2023-01-18T04:35:06.828Z,69.93
2023-01-18T04:37:38.359Z,82.23
2023-01-18T04:40:07.674Z,79.13
2023-01-18T04:42:35.814Z,81.17
2023-01-18T04:45:03.970Z,77.90
2023-01-18T04:47:32.100Z,81.37
2023-01-18T04:50:01.015Z,86.60
2023-01-18T04:52:32.205Z,85.10
2023-01-18T04:55:01.756Z,85.17
2023-01-18T04:57:29.935Z,95.30
2023-01-18T04:59:58.071Z,88.83
2023-01-18T05:02:26.256Z,81.17
2023-01-18T05:04:54.410Z,89.00
2023-01-18T05:07:25.923Z,89.47
2023-01-18T05:09:54.089Z,91.90
2023-01-18T05:12:23.626Z,94.90
2023-01-18T05:14:51.727Z,93.67
2023-01-18T05:17:19.878Z,93.53
2023-01-18T05:19:49.526Z,95.30
2023-01-18T05:22:17.673Z,100.83
2023-01-18T05:24:45.831Z,100.93
2023-01-18T05:27:13.966Z,93.60
2023-01-18T05:29:43.972Z,92.67
2023-01-18T05:32:12.743Z,82.67
2023-01-18T05:34:40.884Z,108.63
2023-01-18T05:37:09.088Z,96.53
2023-01-18T05:39:37.331Z,97.30
2023-01-18T05:42:05.725Z,98.90
2023-01-18T05:44:34.037Z,95.20
2023-01-18T05:47:03.870Z,87.73
2023-01-18T05:49:32.042Z,94.87
2023-01-18T05:52:00.229Z,96.57
2023-01-18T05:54:28.339Z,97.63
2023-01-18T05:56:56.471Z,100.37
2023-01-18T05:59:24.817Z,90.73
2023-01-18T06:01:53.047Z,103.87
2023-01-18T06:04:22.704Z,103.03
2023-01-18T06:06:50.817Z,104.47
2023-01-18T06:09:18.972Z,95.87
2023-01-18T06:11:47.102Z,98.23
2023-01-18T06:14:15.593Z,101.73
2023-01-18T06:16:43.796Z,90.60
2023-01-18T06:19:12.144Z,93.13
2023-01-18T06:21:41.694Z,104.20
2023-01-18T06:24:10.035Z,99.83
2023-01-18T06:26:38.190Z,93.43
2023-01-18T06:29:06.436Z,96.87
2023-01-18T06:31:34.659Z,101.33
2023-01-18T06:34:09.241Z,91.70
2023-01-18T06:36:38.013Z,80.03
2023-01-18T06:39:08.225Z,74.63
2023-01-18T06:41:36.612Z,76.50
2023-01-18T06:44:04.863Z,74.27
2023-01-18T06:46:33.268Z,68.43
2023-01-18T06:49:01.610Z,73.87
2023-01-18T06:51:29.750Z,72.20
2023-01-18T06:53:57.904Z,63.13
2023-01-18T06:56:29.256Z,63.73
2023-01-18T06:58:58.930Z,63.30
2023-01-18T07:01:27.931Z,54.67
2023-01-18T07:03:56.177Z,54.47
2023-01-18T07:06:24.369Z,60.07
2023-01-18T07:08:52.579Z,51.10
2023-01-18T07:11:20.791Z,61.60
2023-01-18T07:13:50.349Z,50.73
2023-01-18T07:16:19.295Z,49.43
2023-01-18T07:18:48.370Z,48.23
2023-01-18T07:21:17.815Z,54.53
2023-01-18T07:23:46.360Z,49.93
2023-01-18T07:26:16.635Z,51.30
2023-01-18T07:28:45.604Z,41.93
2023-01-18T07:31:16.761Z,49.77
2023-01-18T07:33:45.200Z,42.53
2023-01-18T07:36:14.033Z,40.53
2023-01-18T07:38:42.655Z,46.73
2023-01-18T07:41:14.291Z,45.23
2023-01-18T07:43:44.643Z,45.73
2023-01-18T07:46:16.926Z,51.33
2023-01-18T07:48:45.851Z,57.43
2023-01-18T07:51:15.545Z,58.63
2023-01-18T07:53:44.527Z,66.07
2023-01-18T07:56:14.893Z,50.97
2023-01-18T07:58:43.237Z,53.67
2023-01-18T08:01:13.707Z,49.03
2023-01-18T08:03:44.229Z,45.67
2023-01-18T08:06:13.535Z,49.53
2023-01-18T08:08:41.927Z,46.13
2023-01-18T08:11:12.624Z,48.57
2023-01-18T08:13:41.796Z,47.23
2023-01-18T08:16:12.265Z,49.50
2023-01-18T08:18:42.365Z,41.63
2023-01-18T08:21:12.519Z,42.73
2023-01-18T08:23:40.709Z,47.27
2023-01-18T08:26:10.144Z,42.57
2023-01-18T08:28:38.350Z,37.53
2023-01-18T08:31:09.975Z,42.43
2023-01-18T08:33:40.468Z,38.03
2023-01-18T08:36:13.705Z,37.87
2023-01-18T08:38:42.149Z,43.40
2023-01-18T08:41:10.478Z,36.43
2023-01-18T08:43:38.847Z,42.47
2023-01-18T08:46:07.326Z,38.23
2023-01-18T08:48:35.573Z,38.07
2023-01-18T08:51:04.497Z,42.60
2023-01-18T08:53:34.299Z,39.30
2023-01-18T08:56:06.603Z,38.00
2023-01-18T08:58:35.196Z,41.97
2023-01-18T09:01:06.465Z,37.07
2023-01-18T09:03:35.265Z,38.30
2023-01-18T09:06:04.895Z,38.93
2023-01-18T09:08:34.555Z,43.20
2023-01-18T09:11:03.540Z,35.23
2023-01-18T09:13:32.067Z,38.80
2023-01-18T09:16:01.109Z,40.30
2023-01-18T09:18:30.139Z,37.67
2023-01-18T09:20:58.527Z,30.37
2023-01-18T09:23:26.794Z,38.43
2023-01-18T09:26:04.585Z,37.03
2023-01-18T09:28:34.655Z,36.23
2023-01-18T09:31:03.621Z,37.47
2023-01-18T09:33:37.650Z,36.43
2023-01-18T09:36:09.942Z,39.37
2023-01-18T09:38:39.251Z,40.97
2023-01-18T09:41:23.186Z,35.90
2023-01-18T09:43:55.857Z,41.20
2023-01-18T09:46:25.444Z,37.30
2023-01-18T09:48:56.969Z,33.63
2023-01-18T09:51:29.286Z,33.63
2023-01-18T09:54:09.313Z,36.30
2023-01-18T09:56:45.742Z,35.17
2023-01-18T09:59:22.634Z,33.77
2023-01-18T10:01:55.005Z,36.17
2023-01-18T10:04:30.661Z,33.30
2023-01-18T10:07:02.284Z,31.00
2023-01-18T10:09:34.549Z,28.90
2023-01-18T10:12:08.041Z,36.27
2023-01-18T10:14:45.301Z,29.70
2023-01-18T10:17:18.109Z,30.50
2023-01-18T10:19:46.806Z,31.03
2023-01-18T10:22:22.171Z,28.53
2023-01-18T10:24:58.207Z,26.37
2023-01-18T10:27:56.393Z,31.40
2023-01-18T10:30:51.857Z,31.30
2023-01-18T10:33:23.666Z,30.40
2023-01-18T10:35:55.640Z,30.87
2023-01-18T10:38:26.570Z,36.50
2023-01-18T10:40:58.955Z,31.77
2023-01-18T10:43:30.628Z,36.57
2023-01-18T10:45:59.203Z,32.93
2023-01-18T10:48:30.637Z,33.57
2023-01-18T10:51:00.699Z,31.17
2023-01-18T10:53:33.987Z,23.40
2023-01-18T10:56:05.677Z,23.40
2023-01-18T10:58:42.873Z,28.67
2023-01-18T11:01:17.167Z,27.20
2023-01-18T11:03:48.745Z,31.27
2023-01-18T11:06:19.312Z,27.00
2023-01-18T11:08:48.654Z,29.37
2023-01-18T11:11:48.920Z,24.83
2023-01-18T11:14:30.548Z,24.00
2023-01-18T11:17:00.104Z,20.40
2023-01-18T11:19:28.356Z,22.33
2023-01-18T11:21:57.076Z,21.33
2023-01-18T11:24:29.079Z,18.13
2023-01-18T11:27:01.702Z,18.67
2023-01-18T11:29:34.078Z,16.97
2023-01-18T11:32:05.461Z,15.87
2023-01-18T11:34:35.679Z,15.37
2023-01-18T11:37:04.710Z,15.37
2023-01-18T11:39:35.393Z,14.53
2023-01-18T11:42:23.604Z,17.03
2023-01-18T11:45:05.522Z,17.30
2023-01-18T11:47:43.227Z,16.87
2023-01-18T11:50:23.805Z,15.80
2023-01-18T11:52:55.615Z,13.83
2023-01-18T11:55:32.232Z,18.50
2023-01-18T11:58:06.299Z,18.33
2023-01-18T12:00:46.881Z,25.00
2023-01-18T12:03:49.040Z,18.97
2023-01-18T12:06:27.003Z,19.90
2023-01-18T12:09:11.052Z,23.33
2023-01-18T12:12:03.644Z,27.07
2023-01-18T12:14:51.070Z,25.63
2023-01-18T12:17:37.977Z,19.97
2023-01-18T12:20:25.577Z,18.23
2023-01-18T12:23:37.436Z,15.63
2023-01-18T12:26:26.239Z,13.43
2023-01-18T12:29:20.042Z,10.47
2023-01-18T12:32:02.253Z,9.87
2023-01-18T12:34:41.740Z,10.93
2023-01-18T12:37:36.829Z,8.57
2023-01-18T12:40:27.537Z,10.63
2023-01-18T12:43:07.019Z,9.70
2023-01-18T12:45:40.295Z,10.73
2023-01-18T12:48:18.487Z,7.93
2023-01-18T12:50:51.111Z,8.97
2023-01-18T12:53:34.006Z,10.60
2023-01-18T12:56:10.114Z,6.97
2023-01-18T12:58:38.354Z,7.77
2023-01-18T13:01:08.763Z,6.60
2023-01-18T13:03:43.257Z,6.23
2023-01-18T13:06:13.722Z,7.17
2023-01-18T13:08:46.249Z,8.80
2023-01-18T13:11:20.617Z,6.63
2023-01-18T13:13:53.415Z,6.07
2023-01-18T13:16:45.342Z,5.63
2023-01-18T13:19:24.569Z,6.40
2023-01-18T13:22:03.370Z,6.87
2023-01-18T13:24:44.791Z,5.63
2023-01-18T13:27:15.170Z,4.70
2023-01-18T13:29:44.167Z,6.07
2023-01-18T13:32:24.063Z,9.33
2023-01-18T13:35:18.637Z,6.63
2023-01-18T13:37:53.405Z,7.27
2023-01-18T13:40:26.451Z,11.13
2023-01-18T13:42:54.691Z,12.97
2023-01-18T13:45:24.285Z,11.33
2023-01-18T13:47:58.458Z,13.57
2023-01-18T13:50:47.394Z,29.30
2023-01-18T13:53:27.291Z,16.13
2023-01-18T13:56:27.557Z,21.03
2023-01-18T13:59:14.639Z,27.97
2023-01-18T14:01:50.020Z,13.60
2023-01-18T14:04:27.616Z,20.75
2023-01-18T14:06:58.769Z,23.57
2023-01-18T14:09:41.889Z,19.50
2023-01-18T14:12:14.057Z,21.13
2023-01-18T14:14:56.377Z,24.20
2023-01-18T14:17:25.959Z,27.90
2023-01-18T14:20:07.789Z,26.60
2023-01-18T14:22:48.198Z,33.60
2023-01-18T14:25:33.447Z,43.73
2023-01-18T14:28:17.750Z,40.10
2023-01-18T14:30:48.577Z,33.80
2023-01-18T14:33:21.437Z,37.30
2023-01-18T14:35:53.881Z,58.10
2023-01-18T14:38:22.652Z,30.47
2023-01-18T14:40:54.396Z,23.10
2023-01-18T14:43:28.135Z,24.57
2023-01-18T14:46:00.451Z,26.57
2023-01-18T14:48:31.927Z,33.47
2023-01-18T14:51:01.801Z,37.87
2023-01-18T14:53:33.528Z,43.60
2023-01-18T14:56:08.929Z,41.50
2023-01-18T14:58:40.205Z,38.00
2023-01-18T15:01:10.000Z,43.80
2023-01-18T15:03:39.623Z,43.57
2023-01-18T15:06:16.694Z,41.80
2023-01-18T15:08:46.717Z,51.67
2023-01-18T15:11:16.704Z,51.57
2023-01-18T15:13:52.757Z,46.13
2023-01-18T15:16:25.045Z,48.60
2023-01-18T15:18:55.131Z,47.80
2023-01-18T15:21:25.142Z,48.30
2023-01-18T15:23:57.961Z,46.23
2023-01-18T15:26:44.380Z,50.53
2023-01-18T15:29:16.952Z,48.70
2023-01-18T15:31:51.525Z,49.90
2023-01-18T15:34:28.107Z,57.07
2023-01-18T15:37:00.554Z,45.80
2023-01-18T15:39:32.073Z,45.80
2023-01-18T15:42:06.543Z,53.90
2023-01-18T15:44:41.598Z,39.50
2023-01-18T15:47:18.652Z,46.37
2023-01-18T15:49:50.597Z,42.77
2023-01-18T15:52:39.007Z,47.03
2023-01-18T15:55:14.325Z,41.60
2023-01-18T15:57:52.805Z,47.13
2023-01-18T16:00:29.039Z,42.13
2023-01-18T16:02:57.485Z,45.17
2023-01-18T16:05:27.446Z,46.70
2023-01-18T16:08:16.877Z,46.57
2023-01-18T16:10:56.134Z,41.67
2023-01-18T16:13:37.300Z,46.80
2023-01-18T16:16:19.731Z,43.57
2023-01-18T16:18:51.262Z,45.20
2023-01-18T16:21:42.249Z,39.20
2023-01-18T16:24:30.600Z,44.17
2023-01-18T16:27:01.519Z,43.57
2023-01-18T16:29:40.261Z,45.70
2023-01-18T16:32:21.278Z,46.10
2023-01-18T16:34:49.675Z,50.37
2023-01-18T16:37:18.733Z,49.60
2023-01-18T16:39:46.992Z,42.27
2023-01-18T16:42:19.948Z,43.70
2023-01-18T16:44:51.790Z,46.63
2023-01-18T16:47:20.280Z,43.57
2023-01-18T16:49:48.635Z,56.30
2023-01-18T16:52:17.319Z,49.40
2023-01-18T16:54:46.928Z,47.30
2023-01-18T16:57:20.085Z,52.10
2023-01-18T16:59:48.602Z,51.13
2023-01-18T17:02:18.607Z,53.27
2023-01-18T17:04:53.225Z,48.57
2023-01-18T17:07:21.864Z,59.00
2023-01-18T17:09:51.447Z,58.07
2023-01-18T17:12:20.682Z,51.70
2023-01-18T17:14:56.579Z,51.47
2023-01-18T17:17:26.400Z,52.93
2023-01-18T17:19:55.525Z,47.73
2023-01-18T17:22:23.776Z,52.47
2023-01-18T17:24:57.330Z,45.87
2023-01-18T17:27:25.843Z,59.57
2023-01-18T17:29:54.066Z,52.13
2023-01-18T17:32:22.301Z,50.53
2023-01-18T17:34:51.907Z,49.97
2023-01-18T17:37:20.150Z,54.90
2023-01-18T17:40:02.392Z,53.30
2023-01-18T17:42:31.747Z,53.93
2023-01-18T17:45:03.865Z,61.80
2023-01-18T17:47:33.855Z,63.43
2023-01-18T17:50:09.174Z,68.37
2023-01-18T17:52:37.882Z,62.63
2023-01-18T17:55:07.907Z,65.17
2023-01-18T17:57:36.556Z,63.90
2023-01-18T18:00:08.451Z,73.27
2023-01-18T18:02:40.905Z,51.07
2023-01-18T18:05:11.683Z,58.13
2023-01-18T18:07:39.832Z,60.97
2023-01-18T18:10:09.162Z,70.23
2023-01-18T18:12:38.153Z,69.23
2023-01-18T18:15:07.560Z,62.70
2023-01-18T18:17:35.829Z,78.83
2023-01-18T18:20:04.597Z,66.70
2023-01-18T18:22:34.293Z,65.17
2023-01-18T18:25:02.614Z,70.80
2023-01-18T18:27:44.520Z,68.03
2023-01-18T18:30:14.069Z,78.40
2023-01-18T18:32:42.456Z,81.60
2023-01-18T18:35:24.333Z,68.47
2023-01-18T18:37:55.585Z,72.57
2023-01-18T18:40:24.336Z,77.73
2023-01-18T18:43:01.583Z,70.77
2023-01-18T18:45:31.806Z,68.43
2023-01-18T18:48:00.211Z,78.20
2023-01-18T18:50:28.969Z,76.00
2023-01-18T18:52:59.702Z,70.30
2023-01-18T18:55:28.252Z,62.40
2023-01-18T18:57:56.748Z,75.10
2023-01-18T19:00:25.624Z,88.00
2023-01-18T19:02:59.100Z,74.40
2023-01-18T19:05:27.613Z,76.13
2023-01-18T19:07:55.890Z,79.70
2023-01-18T19:10:27.623Z,79.57
2023-01-18T19:12:55.961Z,74.10
2023-01-18T19:15:25.215Z,77.73
2023-01-18T19:17:54.836Z,78.07
2023-01-18T19:20:23.068Z,76.17
2023-01-18T19:22:52.299Z,75.37
2023-01-18T19:25:21.117Z,83.43
2023-01-18T19:27:50.947Z,69.77
2023-01-18T19:30:20.094Z,76.83
2023-01-18T19:32:51.022Z,77.17
2023-01-18T19:35:20.102Z,74.60
2023-01-18T19:37:49.675Z,81.37
2023-01-18T19:40:18.720Z,81.07
2023-01-18T19:42:56.128Z,75.17
2023-01-18T19:45:28.456Z,74.73
2023-01-18T19:47:59.821Z,61.43
2023-01-18T19:50:29.267Z,69.50
2023-01-18T19:52:59.759Z,74.03
2023-01-18T19:55:28.346Z,71.33
2023-01-18T19:57:57.855Z,63.27
2023-01-18T20:00:29.154Z,65.23
2023-01-18T20:02:58.200Z,66.50
2023-01-18T20:05:27.368Z,67.23
2023-01-18T20:07:55.814Z,57.07
2023-01-18T20:10:24.186Z,53.93
2023-01-18T20:12:52.520Z,58.40
2023-01-18T20:15:21.376Z,62.63
2023-01-18T20:17:51.419Z,69.97
2023-01-18T20:20:31.323Z,61.87
2023-01-18T20:23:02.996Z,57.37
2023-01-18T20:25:32.128Z,55.70
2023-01-18T20:28:00.414Z,64.47
2023-01-18T20:30:28.738Z,63.70
2023-01-18T20:32:58.697Z,60.97
2023-01-18T20:35:27.590Z,70.20
2023-01-18T20:37:56.470Z,64.50
2023-01-18T20:40:24.762Z,69.00
2023-01-18T20:42:52.947Z,64.70
2023-01-18T20:45:21.237Z,67.40
2023-01-18T20:47:49.508Z,66.67
2023-01-18T20:50:19.682Z,66.70
2023-01-18T20:52:47.962Z,65.77
2023-01-18T20:55:16.695Z,82.70
2023-01-18T20:57:45.022Z,67.00
2023-01-18T21:00:14.754Z,68.93
2023-01-18T21:02:43.121Z,66.40
2023-01-18T21:05:11.459Z,68.53
2023-01-18T21:07:41.886Z,72.47
2023-01-18T21:10:12.112Z,70.47
2023-01-18T21:12:41.384Z,76.10
2023-01-18T21:15:10.484Z,65.83
2023-01-18T21:17:39.765Z,70.00
2023-01-18T21:20:09.196Z,64.33
2023-01-18T21:22:37.419Z,69.13
2023-01-18T21:25:08.711Z,66.13
2023-01-18T21:27:36.898Z,62.27
2023-01-18T21:30:05.900Z,64.00
2023-01-18T21:32:34.193Z,59.37
2023-01-18T21:35:02.510Z,63.53
2023-01-18T21:37:30.987Z,58.83
2023-01-18T21:40:00.657Z,61.73
2023-01-18T21:42:48.010Z,58.13
2023-01-18T21:45:33.956Z,62.97
2023-01-18T21:48:07.350Z,60.27
2023-01-18T21:50:53.408Z,62.00
2023-01-18T21:53:38.802Z,62.07
2023-01-18T21:56:07.667Z,55.20
2023-01-18T21:58:56.082Z,60.53
2023-01-18T22:01:26.880Z,61.57
2023-01-18T22:04:13.449Z,63.43
2023-01-18T22:06:42.625Z,66.93
2023-01-18T22:09:10.777Z,63.90
2023-01-18T22:11:39.001Z,69.53
2023-01-18T22:14:09.855Z,71.93
2023-01-18T22:16:38.335Z,66.83
2023-01-18T22:19:06.655Z,71.90
2023-01-18T22:21:35.285Z,71.40
2023-01-18T22:24:03.565Z,74.50
2023-01-18T22:26:33.034Z,73.50
2023-01-18T22:29:02.454Z,67.63
2023-01-18T22:31:32.271Z,81.43
2023-01-18T22:34:00.735Z,73.50
2023-01-18T22:36:28.961Z,80.77
2023-01-18T22:38:57.478Z,81.10
2023-01-18T22:41:27.334Z,74.40
2023-01-18T22:43:56.517Z,85.07
2023-01-18T22:46:25.587Z,81.77
2023-01-18T22:48:55.238Z,87.20
2023-01-18T22:51:24.553Z,87.50
2023-01-18T22:53:53.259Z,86.83
2023-01-18T22:56:22.998Z,82.07
2023-01-18T22:58:51.939Z,89.03
2023-01-18T23:01:22.349Z,89.67
2023-01-18T23:03:51.105Z,90.27
2023-01-18T23:06:21.418Z,90.67
2023-01-18T23:08:50.285Z,85.00
2023-01-18T23:11:20.893Z,94.03
2023-01-18T23:14:05.580Z,87.37
2023-01-18T23:16:51.891Z,93.50
2023-01-18T23:19:20.435Z,88.67
2023-01-18T23:21:49.946Z,98.40
2023-01-18T23:24:18.125Z,94.67
2023-01-18T23:26:46.379Z,90.67
2023-01-18T23:29:15.549Z,96.07
2023-01-18T23:31:44.294Z,93.63
2023-01-18T23:34:12.562Z,93.30
2023-01-18T23:36:40.812Z,87.10
2023-01-18T23:39:27.906Z,86.90
2023-01-18T23:42:13.276Z,89.40
2023-01-18T23:44:58.689Z,92.97
2023-01-18T23:47:43.990Z,98.43
2023-01-18T23:50:29.980Z,93.50
2023-01-18T23:53:18.390Z,92.67
2023-01-18T23:55:47.987Z,96.33
2023-01-18T23:58:16.224Z,98.83
